Time;durP1;ratioP1;P1;durP2;ratioP2;P2;SDS_P1;SDS_P2;PMS_P1;PMS_P2;Temp;Humidity;BMP_temperature;BMP_pressure;BME280_temperature;BME280_humidity;BME280_pressure;Samples;Min_cycle;Max_cycle;Signal;HPM_P1;HPM_P2
2022/06/04 00:01:25;;;;;;;7.40;3.80;;;16.70;35.60;;;;;;5084336;28;20459;-84
2022/06/04 00:03:54;;;;;;;6.73;3.57;;;16.70;35.60;;;;;;5084403;28;20463;-84
2022/06/04 00:06:21;;;;;;;6.57;3.67;;;16.50;38.40;;;;;;5083527;28;20448;-84
2022/06/04 00:08:48;;;;;;;6.03;3.43;;;16.40;39.00;;;;;;5083704;28;20463;-84
2022/06/04 00:16:58;;;;;;;6.40;3.43;;;16.40;39.00;;;;;;5022392;28;20441;-84
2022/06/04 00:19:26;;;;;;;5.63;3.50;;;16.30;40.90;;;;;;5055238;28;20478;-84
2022/06/04 00:21:52;;;;;;;5.10;3.37;;;16.30;39.40;;;;;;5083757;28;20456;-84
2022/06/04 00:24:19;;;;;;;6.70;3.57;;;16.30;39.90;;;;;;5083126;28;20454;-85
2022/06/04 00:26:46;;;;;;;6.00;3.20;;;16.30;39.10;;;;;;5082963;28;20452;-84
2022/06/04 00:29:13;;;;;;;7.70;4.40;;;16.40;38.30;;;;;;5081631;28;20866;-84
2022/06/04 00:31:40;;;;;;;13.87;3.90;;;16.30;40.30;;;;;;5083051;28;20444;-85
2022/06/04 00:34:08;;;;;;;7.47;3.90;;;16.20;39.30;;;;;;5083536;28;20459;-84
2022/06/04 00:36:37;;;;;;;8.83;4.10;;;16.20;40.60;;;;;;5083817;28;20448;-84
2022/06/04 00:39:04;;;;;;;6.10;3.90;;;16.10;40.70;;;;;;5082513;28;20475;-84
2022/06/04 00:41:37;;;;;;;6.57;4.10;;;16.10;42.20;;;;;;5083588;28;20449;-84
2022/06/04 00:44:41;;;;;;;7.70;4.33;;;16.00;43.60;;;;;;5083400;28;20825;-84
2022/06/04 00:47:23;;;;;;;6.30;4.40;;;15.80;46.50;;;;;;5080166;28;20464;-84
2022/06/04 00:49:50;;;;;;;7.53;4.33;;;15.70;49.20;;;;;;5081846;28;20446;-84
2022/06/04 00:52:17;;;;;;;6.70;4.17;;;15.60;49.10;;;;;;5083087;28;20453;-85
2022/06/04 00:54:46;;;;;;;6.20;3.77;;;15.50;49.50;;;;;;5082966;28;20451;-84
2022/06/04 00:57:42;;;;;;;7.47;4.37;;;15.40;51.20;;;;;;5082469;28;20452;-84
2022/06/04 01:00:13;;;;;;;8.10;4.20;;;15.30;53.90;;;;;;5080776;28;20547;-84
2022/06/04 01:02:57;;;;;;;7.53;4.33;;;15.20;53.50;;;;;;5081984;28;20446;-85
2022/06/04 01:05:33;;;;;;;6.90;4.00;;;15.20;55.30;;;;;;5081973;28;20540;-84
2022/06/04 01:08:14;;;;;;;7.63;5.13;;;15.10;54.50;;;;;;5082269;28;20470;-84
2022/06/04 01:10:53;;;;;;;7.60;4.60;;;15.10;57.30;;;;;;5083037;28;20443;-84
2022/06/04 01:13:39;;;;;;;5.57;3.70;;;15.10;57.30;;;;;;5062804;28;20454;-84
2022/06/04 01:16:15;;;;;;;6.40;4.07;;;15.10;58.10;;;;;;5081410;28;20457;-85
2022/06/04 01:18:51;;;;;;;6.07;3.90;;;15.10;57.30;;;;;;5081859;28;20899;-85
2022/06/04 01:21:22;;;;;;;6.17;3.77;;;15.00;58.90;;;;;;5082483;28;20458;-84
2022/06/04 01:24:21;;;;;;;6.90;3.73;;;15.10;57.30;;;;;;5081643;28;20447;-84
2022/06/04 01:27:13;;;;;;;7.23;4.33;;;15.20;54.80;;;;;;5081384;28;20449;-84
2022/06/04 01:29:48;;;;;;;7.50;4.40;;;15.20;56.90;;;;;;5079004;28;20479;-84
2022/06/04 01:32:22;;;;;;;11.50;3.83;;;15.20;57.40;;;;;;5082147;28;20454;-83
2022/06/04 01:34:54;;;;;;;7.10;4.03;;;15.20;58.80;;;;;;5081486;28;20451;-84
2022/06/04 01:37:26;;;;;;;7.43;4.20;;;15.20;60.00;;;;;;5082572;28;20458;-84
2022/06/04 01:42:44;;;;;;;6.70;3.80;;;15.10;58.40;;;;;;5084483;28;20434;-85
2022/06/04 01:45:13;;;;;;;6.13;3.30;;;15.30;57.50;;;;;;5083444;28;20451;-84
2022/06/04 01:47:43;;;;;;;7.40;4.03;;;15.30;55.20;;;;;;5083780;28;20473;-84
2022/06/04 01:50:14;;;;;;;8.73;3.83;;;15.30;55.60;;;;;;5083515;28;20861;-85
2022/06/04 01:52:42;;;;;;;7.20;4.90;;;15.30;56.10;;;;;;5083457;28;20450;-84
2022/06/04 01:55:13;;;;;;;6.80;4.10;;;15.30;57.50;;;;;;5084388;28;20455;-84
2022/06/04 01:57:44;;;;;;;7.43;4.70;;;15.20;57.40;;;;;;5083625;28;20474;-84
2022/06/04 02:00:15;;;;;;;8.73;3.53;;;15.30;58.70;;;;;;5082521;28;20478;-84
2022/06/04 02:02:47;;;;;;;8.03;4.60;;;15.20;57.80;;;;;;5083763;28;20971;-84
2022/06/04 02:05:20;;;;;;;7.40;4.20;;;15.10;60.40;;;;;;5084625;28;20454;-84
2022/06/04 02:07:52;;;;;;;6.47;3.67;;;15.10;59.90;;;;;;5084482;28;20475;-85
2022/06/04 02:10:24;;;;;;;6.07;3.50;;;15.10;60.20;;;;;;5080369;28;20525;-83
2022/06/04 02:12:55;;;;;;;9.23;3.80;;;15.10;58.50;;;;;;5081176;28;20462;-84
2022/06/04 02:15:26;;;;;;;6.83;3.50;;;15.20;56.60;;;;;;5082466;28;20451;-84
2022/06/04 02:17:57;;;;;;;6.00;3.53;;;15.20;56.20;;;;;;5082573;28;20466;-83
2022/06/04 02:20:25;;;;;;;7.53;3.80;;;15.20;55.10;;;;;;5082132;28;20513;-84
2022/06/04 02:22:52;;;;;;;7.43;3.17;;;15.20;55.10;;;;;;5083589;28;20822;-83
2022/06/04 02:25:19;;;;;;;8.47;3.37;;;15.20;56.30;;;;;;5081765;28;20458;-83
2022/06/04 02:27:46;;;;;;;7.60;3.73;;;15.20;54.20;;;;;;5081037;28;20477;-83
2022/06/04 02:30:15;;;;;;;8.07;3.77;;;15.20;55.40;;;;;;5081458;28;20443;-84
2022/06/04 02:32:55;;;;;;;6.07;3.60;;;15.20;53.80;;;;;;5082350;28;20458;-83
2022/06/04 02:35:26;;;;;;;6.00;3.67;;;15.30;52.90;;;;;;5082396;28;20446;-83
2022/06/04 02:37:59;;;;;;;7.60;4.13;;;15.20;53.40;;;;;;5081356;28;20485;-84
2022/06/04 02:40:29;;;;;;;6.83;3.37;;;15.20;53.80;;;;;;5080478;28;20478;-83
2022/06/04 02:43:04;;;;;;;17.23;4.20;;;15.20;53.60;;;;;;5082232;28;20450;-84
2022/06/04 02:45:35;;;;;;;6.00;2.93;;;15.10;53.60;;;;;;5080796;28;20451;-84
2022/06/04 02:48:10;;;;;;;6.40;3.50;;;15.20;52.60;;;;;;5060475;28;20467;-83
2022/06/04 02:50:40;;;;;;;10.13;3.70;;;15.10;53.20;;;;;;5075784;28;20446;-85
2022/06/04 02:53:09;;;;;;;6.63;3.20;;;15.10;50.90;;;;;;5082337;28;20457;-83
2022/06/04 02:55:40;;;;;;;7.00;3.10;;;15.10;51.40;;;;;;5080708;28;20450;-84
2022/06/04 02:58:12;;;;;;;6.20;3.27;;;15.20;49.60;;;;;;5061313;28;20506;-83
2022/06/04 03:00:42;;;;;;;7.77;4.13;;;15.00;49.60;;;;;;5075059;28;20473;-84
2022/06/04 03:03:11;;;;;;;6.17;3.37;;;15.00;50.70;;;;;;5081606;28;20446;-84
2022/06/04 03:05:39;;;;;;;9.60;4.60;;;15.00;50.60;;;;;;5081185;28;20451;-83
2022/06/04 03:08:07;;;;;;;5.67;2.87;;;14.90;52.20;;;;;;5061483;28;20471;-82
2022/06/04 03:10:36;;;;;;;5.40;3.30;;;14.80;54.10;;;;;;5070780;28;20446;-84
2022/06/04 03:13:03;;;;;;;6.77;4.10;;;14.70;55.20;;;;;;5080442;28;20455;-84
2022/06/04 03:15:30;;;;;;;9.07;4.00;;;14.50;57.70;;;;;;5081446;28;20462;-83
2022/06/04 03:17:58;;;;;;;8.07;4.40;;;14.30;61.30;;;;;;5081502;28;20466;-83
2022/06/04 03:20:26;;;;;;;7.40;4.03;;;14.20;62.70;;;;;;5080731;28;20474;-84
2022/06/04 03:22:54;;;;;;;7.57;4.10;;;14.10;61.90;;;;;;5083615;28;20966;-85
2022/06/04 03:25:21;;;;;;;6.97;4.30;;;14.10;62.90;;;;;;5082188;28;20454;-84
2022/06/04 03:27:48;;;;;;;12.93;4.50;;;14.10;64.70;;;;;;5080924;28;20474;-84
2022/06/04 03:30:16;;;;;;;9.77;4.53;;;14.00;64.60;;;;;;5079815;28;20474;-84
2022/06/04 03:32:42;;;;;;;8.50;4.40;;;14.00;66.00;;;;;;5082190;28;20450;-85
2022/06/04 03:35:13;;;;;;;7.77;4.57;;;13.90;68.60;;;;;;5081541;28;20450;-83
2022/06/04 03:37:40;;;;;;;9.50;5.23;;;13.80;70.10;;;;;;5080407;28;20548;-84
2022/06/04 03:40:10;;;;;;;7.73;4.87;;;13.70;72.80;;;;;;5077360;28;20517;-84
2022/06/04 03:42:37;;;;;;;11.43;6.90;;;13.60;75.10;;;;;;5071702;28;20455;-83
2022/06/04 03:45:05;;;;;;;10.37;9.27;;;13.60;79.30;;;;;;5073845;28;20451;-81
2022/06/04 03:47:36;;;;;;;8.67;7.57;;;13.50;81.20;;;;;;5071512;28;20484;-81
2022/06/04 03:50:03;;;;;;;10.47;6.47;;;13.40;83.90;;;;;;5056567;28;20570;-81
2022/06/04 03:52:31;;;;;;;9.77;5.60;;;13.50;84.50;;;;;;5073787;28;20453;-81
2022/06/04 03:54:58;;;;;;;11.07;4.70;;;13.50;85.50;;;;;;5071494;28;20455;-81
2022/06/04 03:57:40;;;;;;;7.50;4.37;;;13.50;84.90;;;;;;5073274;28;20467;-82
2022/06/04 04:00:12;;;;;;;8.87;5.00;;;13.50;82.80;;;;;;5062218;28;20497;-83
2022/06/04 04:02:39;;;;;;;8.23;5.37;;;13.70;80.30;;;;;;5073969;28;20456;-82
2022/06/04 04:05:08;;;;;;;8.87;5.73;;;13.70;81.30;;;;;;5073210;28;20462;-81
2022/06/04 04:07:36;;;;;;;9.43;8.40;;;13.70;82.80;;;;;;5064235;28;20456;-82
2022/06/04 04:10:05;;;;;;;15.57;14.50;;;13.80;85.50;;;;;;5067933;28;20466;-82
2022/06/04 04:12:32;;;;;;;13.57;12.57;;;13.70;88.90;;;;;;5074410;28;20450;-82
2022/06/04 04:14:58;;;;;;;12.87;11.77;;;13.70;90.00;;;;;;5076977;28;20458;-82
2022/06/04 04:17:25;;;;;;;16.80;8.40;;;13.50;90.80;;;;;;5074177;28;20483;-81
2022/06/04 04:19:52;;;;;;;9.53;8.57;;;13.60;90.90;;;;;;5072353;28;20545;-82
2022/06/04 04:22:19;;;;;;;10.67;6.93;;;13.60;90.60;;;;;;5074856;28;20830;-82
2022/06/04 04:24:47;;;;;;;10.97;9.77;;;13.70;90.30;;;;;;5076902;28;20446;-81
2022/06/04 04:27:14;;;;;;;12.10;10.90;;;13.80;90.10;;;;;;5070445;28;20450;-82
2022/06/04 04:29:41;;;;;;;17.63;16.37;;;13.80;90.40;;;;;;5075254;28;20470;-81
2022/06/04 04:32:09;;;;;;;13.13;11.90;;;13.80;90.90;;;;;;5074649;28;20443;-81
2022/06/04 04:34:35;;;;;;;9.40;8.50;;;13.90;91.10;;;;;;5075105;28;20461;-81
2022/06/04 04:37:02;;;;;;;10.77;6.50;;;14.00;88.30;;;;;;5082873;28;20829;-82
2022/06/04 04:39:29;;;;;;;8.70;5.97;;;14.10;87.50;;;;;;5083102;28;20478;-82
2022/06/04 04:41:57;;;;;;;15.10;9.27;;;14.20;85.40;;;;;;5077996;28;20482;-82
2022/06/04 04:44:24;;;;;;;20.83;10.13;;;14.30;85.60;;;;;;5073851;28;20477;-82
2022/06/04 04:46:51;;;;;;;10.17;7.30;;;14.40;85.60;;;;;;5076722;28;20457;-82
2022/06/04 04:49:17;;;;;;;9.50;6.30;;;14.40;85.40;;;;;;5078996;28;20481;-84
2022/06/04 04:51:44;;;;;;;8.20;5.73;;;14.50;83.30;;;;;;5079435;28;20442;-84
2022/06/04 04:54:11;;;;;;;8.17;5.27;;;14.60;81.10;;;;;;5078341;28;20450;-84
2022/06/04 04:56:39;;;;;;;10.03;5.70;;;14.80;79.40;;;;;;5075930;28;20446;-85
2022/06/04 04:59:08;;;;;;;9.33;5.90;;;14.90;73.50;;;;;;5078214;28;20467;-85
2022/06/04 05:01:35;;;;;;;10.03;7.00;;;15.00;79.70;;;;;;5081503;28;20473;-83
2022/06/04 05:04:02;;;;;;;8.73;5.37;;;15.20;78.60;;;;;;5080857;28;20450;-84
2022/06/04 05:06:28;;;;;;;7.60;5.07;;;15.20;73.30;;;;;;5077736;28;20457;-83
2022/06/04 05:08:56;;;;;;;8.13;4.50;;;15.30;71.90;;;;;;5075232;28;20477;-84
2022/06/04 05:11:27;;;;;;;6.80;3.97;;;15.50;69.10;;;;;;5080373;28;20450;-84
2022/06/04 05:13:54;;;;;;;7.83;4.90;;;15.60;66.90;;;;;;5082189;28;20450;-84
2022/06/04 05:16:25;;;;;;;7.07;4.27;;;15.80;66.30;;;;;;5082231;28;20463;-84
2022/06/04 05:18:52;;;;;;;7.50;5.17;;;15.90;64.90;;;;;;5084149;28;20472;-84
2022/06/04 05:21:25;;;;;;;12.87;4.90;;;16.10;63.60;;;;;;5083332;28;20471;-85
2022/06/04 05:23:56;;;;;;;9.50;4.63;;;16.30;60.20;;;;;;5084796;28;20456;-84
2022/06/04 05:26:23;;;;;;;7.17;4.43;;;16.40;55.60;;;;;;5087303;28;20448;-84
2022/06/04 05:28:51;;;;;;;8.43;4.03;;;16.50;54.70;;;;;;5086901;28;20463;-84
2022/06/04 05:31:25;;;;;;;7.60;4.53;;;16.60;53.50;;;;;;5082715;28;20527;-84
2022/06/04 05:40:04;;;;;;;11.53;4.80;;;17.00;49.10;;;;;;5054510;28;20449;-84
2022/06/04 05:42:43;;;;;;;7.00;4.30;;;17.10;48.90;;;;;;5067822;28;20797;-85
2022/06/04 05:45:20;;;;;;;8.93;4.63;;;17.10;47.90;;;;;;5074706;28;20533;-84
2022/06/04 05:47:47;;;;;;;6.87;3.73;;;17.10;47.30;;;;;;5082939;28;20493;-84
2022/06/04 05:50:15;;;;;;;7.67;4.47;;;17.30;47.00;;;;;;5086695;28;20548;-83
2022/06/04 05:52:42;;;;;;;11.40;4.27;;;17.50;46.40;;;;;;5085823;28;20458;-83
2022/06/04 05:55:09;;;;;;;7.13;4.37;;;17.50;45.70;;;;;;5080524;28;20454;-83
2022/06/04 05:57:36;;;;;;;8.37;4.47;;;17.50;44.20;;;;;;5079405;28;22352;-83
2022/06/04 06:00:07;;;;;;;7.60;4.20;;;17.40;46.80;;;;;;5079211;28;20482;-83
2022/06/04 06:02:34;;;;;;;8.43;4.73;;;17.30;43.80;;;;;;5079338;28;20458;-83
2022/06/04 06:05:02;;;;;;;8.37;4.40;;;17.40;46.10;;;;;;5078548;28;20458;-83
2022/06/04 06:07:30;;;;;;;7.20;4.63;;;17.50;44.40;;;;;;5078899;28;20470;-83
2022/06/04 06:09:58;;;;;;;12.43;3.67;;;17.70;44.40;;;;;;5078547;28;20447;-82
2022/06/04 06:12:25;;;;;;;10.90;4.50;;;17.90;42.40;;;;;;5077472;28;20538;-82
2022/06/04 06:14:52;;;;;;;6.70;3.60;;;17.90;41.10;;;;;;5078487;28;21727;-83
2022/06/04 06:17:19;;;;;;;7.57;4.53;;;17.70;42.90;;;;;;5079591;28;20448;-82
2022/06/04 06:19:45;;;;;;;6.57;3.00;;;17.90;42.40;;;;;;5078486;28;20513;-83
2022/06/04 06:22:14;;;;;;;7.00;3.90;;;17.60;40.00;;;;;;5080382;28;20473;-82
2022/06/04 06:24:42;;;;;;;8.00;4.77;;;17.60;40.10;;;;;;5078644;28;20829;-83
2022/06/04 06:27:10;;;;;;;6.67;4.40;;;17.70;39.90;;;;;;5063580;28;20446;-83
2022/06/04 06:29:37;;;;;;;7.80;3.73;;;18.20;39.40;;;;;;5078198;28;21016;-81
2022/06/04 06:32:05;;;;;;;7.93;4.50;;;18.00;38.40;;;;;;5079087;28;20447;-82
2022/06/04 06:34:32;;;;;;;8.90;4.37;;;18.10;39.90;;;;;;5078292;28;20998;-82
2022/06/04 06:36:59;;;;;;;5.90;3.80;;;18.50;38.40;;;;;;5079413;28;20458;-83
2022/06/04 06:39:26;;;;;;;7.13;4.10;;;18.50;40.10;;;;;;5079220;28;20480;-83
2022/06/04 06:41:55;;;;;;;7.40;3.60;;;18.80;36.90;;;;;;5079131;28;20482;-82
2022/06/04 06:44:22;;;;;;;8.20;4.60;;;19.20;35.50;;;;;;5078219;28;20460;-82
2022/06/04 06:46:56;;;;;;;7.90;4.63;;;19.20;33.20;;;;;;5078783;28;20463;-82
2022/06/04 06:49:32;;;;;;;8.00;4.13;;;19.30;33.00;;;;;;5081526;28;20478;-85
2022/06/04 06:52:11;;;;;;;;;;;;;;;;;;;;;
2022/06/04 06:54:38;;;;;;;7.20;4.30;;;19.10;34.40;;;;;;5078441;28;20457;-82
2022/06/04 06:57:11;;;;;;;9.07;4.80;;;19.10;34.40;;;;;;5078464;28;20458;-83
2022/06/04 06:59:40;;;;;;;11.57;3.83;;;19.10;33.30;;;;;;5078610;28;21022;-83
2022/06/04 07:02:08;;;;;;;9.97;4.37;;;19.00;34.30;;;;;;5080718;28;20564;-83
2022/06/04 07:04:40;;;;;;;8.67;4.20;;;19.10;34.40;;;;;;5082371;28;20446;-84
2022/06/04 07:07:07;;;;;;;8.73;5.17;;;19.20;33.80;;;;;;5063040;28;20523;-83
2022/06/04 07:09:44;;;;;;;7.43;4.40;;;19.00;34.40;;;;;;5075073;28;20467;-84
2022/06/04 07:12:13;;;;;;;8.73;4.37;;;19.10;32.00;;;;;;5075321;28;20954;-81
2022/06/04 07:14:40;;;;;;;8.33;4.07;;;19.40;33.50;;;;;;5074138;28;20446;-79
2022/06/04 07:17:07;;;;;;;8.53;4.40;;;19.10;34.40;;;;;;5080941;28;20452;-83
2022/06/04 07:19:35;;;;;;;8.73;4.60;;;19.20;34.00;;;;;;5064828;28;20473;-81
2022/06/04 07:22:02;;;;;;;7.40;4.40;;;19.50;31.60;;;;;;5081386;28;20485;-83
2022/06/04 07:24:29;;;;;;;6.77;3.43;;;19.30;31.50;;;;;;5080126;28;20444;-81
2022/06/04 07:26:57;;;;;;;8.02;4.57;;;19.20;32.20;;;;;;5078333;28;20445;-82
2022/06/04 07:29:26;;;;;;;8.63;4.00;;;19.40;34.00;;;;;;5079216;28;20214;-83
2022/06/04 07:31:53;;;;;;;17.73;8.93;;;19.40;31.40;;;;;;5084511;28;20443;-83
2022/06/04 07:34:20;;;;;;;6.53;4.00;;;19.70;30.80;;;;;;5085791;28;20455;-82
2022/06/04 07:36:47;;;;;;;7.30;4.03;;;19.70;30.50;;;;;;5084971;28;20818;-83
2022/06/04 07:39:17;;;;;;;7.47;4.50;;;19.90;31.70;;;;;;5079693;22;20913;-81
2022/06/04 07:41:47;;;;;;;10.93;3.80;;;20.00;29.90;;;;;;5038408;28;20577;-82
2022/06/04 07:44:15;;;;;;;8.50;5.00;;;19.80;29.30;;;;;;5036855;28;20459;-81
2022/06/04 07:46:45;;;;;;;9.13;4.47;;;20.00;29.30;;;;;;5035511;28;20503;-79
2022/06/04 07:49:13;;;;;;;8.80;5.67;;;19.90;30.70;;;;;;5046605;28;20473;-79
2022/06/04 07:51:41;;;;;;;7.40;4.33;;;19.90;29.30;;;;;;5055490;28;20446;-80
2022/06/04 07:54:09;;;;;;;8.50;4.80;;;19.60;29.70;;;;;;5054496;28;20456;-80
2022/06/04 07:56:36;;;;;;;7.07;3.97;;;19.90;30.90;;;;;;5054829;28;20826;-79
2022/06/04 07:59:04;;;;;;;8.90;4.33;;;20.00;31.50;;;;;;5053615;28;20500;-79
2022/06/04 08:01:31;;;;;;;8.07;4.27;;;19.50;30.10;;;;;;5055108;28;20502;-80
2022/06/04 08:03:59;;;;;;;9.60;3.90;;;19.70;31.70;;;;;;5055154;28;20450;-84
2022/06/04 08:06:26;;;;;;;6.97;4.00;;;19.70;33.70;;;;;;5054952;28;20452;-84
2022/06/04 08:08:55;;;;;;;7.83;4.17;;;20.20;28.40;;;;;;5053887;28;20474;-84
2022/06/04 08:11:36;;;;;;;8.30;4.53;;;20.00;28.70;;;;;;5057233;28;20825;-84
2022/06/04 08:14:13;;;;;;;7.80;4.13;;;20.50;30.10;;;;;;5057038;28;20479;-84
2022/06/04 08:17:32;;;;;;;9.90;3.87;;;20.60;28.40;;;;;;5043539;28;20462;-84
2022/06/04 08:20:00;;;;;;;11.20;4.50;;;20.80;27.00;;;;;;5044569;28;20471;-85
2022/06/04 08:22:27;;;;;;;9.70;5.50;;;21.70;25.20;;;;;;5061645;28;20504;-85
2022/06/04 08:24:54;;;;;;;8.17;4.83;;;22.00;23.40;;;;;;5059499;28;20455;-85
2022/06/04 08:27:23;;;;;;;8.47;4.63;;;21.70;24.00;;;;;;5059881;28;20802;-85
2022/06/04 08:29:50;;;;;;;8.10;4.63;;;21.90;24.70;;;;;;5059496;28;20478;-84
2022/06/04 08:32:17;;;;;;;7.67;4.60;;;22.10;24.10;;;;;;5060726;28;20428;-84
2022/06/04 08:34:43;;;;;;;8.30;4.53;;;22.10;22.60;;;;;;5061295;28;20453;-84
2022/06/04 08:37:12;;;;;;;9.97;5.03;;;22.10;22.40;;;;;;5059921;28;20465;-84
2022/06/04 08:39:39;;;;;;;7.57;4.20;;;22.50;22.40;;;;;;5060942;28;20485;-84
2022/06/04 08:42:19;;;;;;;6.50;4.07;;;23.20;22.00;;;;;;5059312;28;20483;-82
2022/06/04 08:44:48;;;;;;;7.33;4.47;;;23.70;19.00;;;;;;5054431;28;20449;-81
2022/06/04 08:47:17;;;;;;;8.90;4.00;;;23.40;18.80;;;;;;5059076;28;20454;-81
2022/06/04 08:49:48;;;;;;;8.63;4.73;;;23.50;19.80;;;;;;5058308;28;20470;-80
2022/06/04 08:52:20;;;;;;;8.60;4.93;;;22.90;21.20;;;;;;5059576;28;20449;-80
2022/06/04 08:57:41;;;;;;;8.97;5.00;;;23.40;19.70;;;;;;5058718;28;20453;-80
2022/06/04 09:00:14;;;;;;;8.00;4.47;;;24.00;18.70;;;;;;5057655;28;20470;-80
2022/06/04 09:03:03;;;;;;;8.73;5.23;;;23.50;15.80;;;;;;5058697;28;20448;-82
2022/06/04 09:05:51;;;;;;;7.30;4.63;;;22.90;19.10;;;;;;5039056;28;20465;-81
2022/06/04 09:08:26;;;;;;;8.87;5.43;;;22.40;21.40;;;;;;5055002;28;20476;-81
2022/06/04 09:10:58;;;;;;;9.57;5.23;;;22.40;21.40;;;;;;5058757;28;20454;-81
2022/06/04 09:13:29;;;;;;;13.70;6.07;;;22.10;22.40;;;;;;5061166;28;20825;-84
2022/06/04 09:16:02;;;;;;;7.93;4.93;;;22.10;23.30;;;;;;5057460;28;20454;-85
2022/06/04 09:18:33;;;;;;;10.43;4.53;;;21.90;25.10;;;;;;5056520;28;20497;-84
2022/06/04 09:21:02;;;;;;;7.90;4.43;;;21.70;27.40;;;;;;5057232;28;20453;-84
2022/06/04 09:23:42;;;;;;;6.60;3.23;;;21.30;25.70;;;;;;5056660;28;20949;-84
2022/06/04 09:26:22;;;;;;;7.93;4.13;;;21.20;25.90;;;;;;5057995;28;20457;-84
2022/06/04 09:29:10;;;;;;;8.20;3.97;;;21.00;25.10;;;;;;5057468;28;20478;-85
2022/06/04 09:31:41;;;;;;;7.20;4.43;;;21.30;26.90;;;;;;5059366;28;20475;-84
2022/06/04 09:34:14;;;;;;;10.03;4.87;;;21.30;25.90;;;;;;5058817;28;20451;-85
2022/06/04 09:36:45;;;;;;;8.63;4.67;;;21.40;25.40;;;;;;5058451;28;20880;-84
2022/06/04 09:39:23;;;;;;;9.30;4.70;;;21.60;27.00;;;;;;5055691;28;20488;-84
2022/06/04 09:41:52;;;;;;;8.00;4.27;;;21.60;25.70;;;;;;5062501;28;20463;-84
2022/06/04 09:44:19;;;;;;;7.80;4.40;;;21.50;25.30;;;;;;5063635;28;20825;-84
2022/06/04 09:46:49;;;;;;;6.40;3.90;;;21.80;25.70;;;;;;5062752;28;20451;-84
2022/06/04 09:49:34;;;;;;;9.60;5.10;;;22.10;25.10;;;;;;5058296;28;20476;-84
2022/06/04 09:52:20;;;;;;;10.53;5.23;;;22.10;24.50;;;;;;5040799;28;20476;-84
2022/06/04 09:54:54;;;;;;;7.80;4.67;;;22.50;22.60;;;;;;5041602;28;21046;-84
2022/06/04 09:57:30;;;;;;;8.67;5.17;;;23.00;25.80;;;;;;5051136;28;20849;-84
2022/06/04 09:59:59;;;;;;;8.67;5.20;;;23.30;22.10;;;;;;5044930;28;20498;-82
2022/06/04 10:02:26;;;;;;;8.27;5.03;;;23.90;20.20;;;;;;5055303;28;20475;-87
2022/06/04 10:05:02;;;;;;;11.03;5.40;;;23.80;15.30;;;;;;5060069;28;20455;-86
2022/06/04 10:07:33;;;;;;;9.40;4.53;;;24.00;18.60;;;;;;5061469;28;20458;-87
2022/06/04 10:10:11;;;;;;;7.50;5.00;;;24.20;20.10;;;;;;5060310;28;20479;-87
2022/06/04 10:15:37;;;;;;;9.60;5.00;;;24.90;16.80;;;;;;5062228;28;20211;-84
2022/06/04 10:18:15;;;;;;;8.40;4.43;;;24.20;14.90;;;;;;5060513;28;20429;-84
2022/06/04 10:20:42;;;;;;;9.40;4.90;;;24.40;15.40;;;;;;5061374;28;20451;-84
2022/06/04 10:23:15;;;;;;;10.87;4.73;;;24.40;15.40;;;;;;5062958;28;21061;-84
2022/06/04 10:25:52;;;;;;;7.53;4.97;;;24.70;15.60;;;;;;5063744;28;20463;-84
2022/06/04 10:28:30;;;;;;;11.53;4.67;;;25.30;15.90;;;;;;5060471;28;20485;-84
2022/06/04 10:31:04;;;;;;;8.37;5.00;;;25.30;13.50;;;;;;5062456;28;20473;-85
2022/06/04 10:33:44;;;;;;;10.80;5.60;;;25.60;18.40;;;;;;5063082;28;20451;-84
2022/06/04 10:36:27;;;;;;;9.53;5.33;;;25.90;12.70;;;;;;5062688;28;20455;-84
2022/06/04 10:39:04;;;;;;;8.57;5.53;;;26.10;10.60;;;;;;5060963;28;20483;-84
2022/06/04 10:41:41;;;;;;;7.60;4.30;;;26.70;9.30;;;;;;5059874;28;20462;-85
2022/06/04 10:44:31;;;;;;;9.43;5.13;;;26.70;7.70;;;;;;5059519;28;20454;-85
2022/06/04 10:47:07;;;;;;;8.80;5.03;;;26.30;12.70;;;;;;5062135;28;20450;-83
2022/06/04 10:49:56;;;;;;;6.87;4.40;;;26.10;11.30;;;;;;5060001;28;20827;-85
2022/06/04 10:52:28;;;;;;;8.10;5.90;;;26.40;11.10;;;;;;5057516;28;20428;-85
2022/06/04 10:55:06;;;;;;;7.20;4.80;;;27.60;7.70;;;;;;5062100;28;20440;-85
2022/06/04 10:57:39;;;;;;;10.20;4.27;;;28.40;5.40;;;;;;5058491;28;20455;-84
2022/06/04 11:00:12;;;;;;;8.17;5.10;;;28.50;7.70;;;;;;5060074;28;20442;-82
2022/06/04 11:02:46;;;;;;;10.83;5.27;;;27.80;4.70;;;;;;5060293;28;20971;-85
2022/06/04 11:05:19;;;;;;;10.60;7.53;;;29.20;2.60;;;;;;5057509;28;20420;-83
2022/06/04 11:07:53;;;;;;;8.10;5.70;;;28.90;2.40;;;;;;5060029;28;20459;-84
2022/06/04 11:10:23;;;;;;;122.40;89.00;;;29.00;2.40;;;;;;5065004;28;20430;-83
2022/06/04 11:12:56;;;;;;;9.03;7.57;;;29.40;2.70;;;;;;5066785;28;20448;-82
2022/06/04 11:15:28;;;;;;;8.90;6.17;;;28.70;2.10;;;;;;5067320;28;20444;-83
2022/06/04 11:18:01;;;;;;;10.50;6.93;;;28.00;2.90;;;;;;5069263;28;20435;-83
2022/06/04 11:20:31;;;;;;;9.00;5.40;;;28.10;5.70;;;;;;5071110;28;20454;-83
2022/06/04 11:23:15;;;;;;;8.00;5.50;;;28.80;3.20;;;;;;5071431;28;20842;-86
2022/06/04 11:25:46;;;;;;;19.20;11.07;;;29.10;1.00;;;;;;5068647;28;20450;-85
2022/06/04 11:28:19;;;;;;;8.30;5.23;;;29.00;2.90;;;;;;5066837;28;20493;-83
2022/06/04 11:30:54;;;;;;;8.60;5.50;;;28.90;2.40;;;;;;5070655;28;20470;-84
2022/06/04 11:33:31;;;;;;;8.20;5.37;;;29.40;2.70;;;;;;5069799;28;20557;-85
2022/06/04 11:36:08;;;;;;;9.33;5.57;;;29.80;1.40;;;;;;5070183;28;20435;-85
2022/06/04 11:39:00;;;;;;;11.50;6.33;;;30.40;1.00;;;;;;5070115;28;20475;-84
2022/06/04 11:41:34;;;;;;;10.90;5.37;;;31.50;1.00;;;;;;5069170;28;20410;-85
2022/06/04 11:44:18;;;;;;;8.30;5.73;;;29.90;1.00;;;;;;5068721;28;20457;-82
2022/06/04 11:46:53;;;;;;;9.53;5.03;;;29.40;1.00;;;;;;5068111;28;20436;-80
2022/06/04 11:49:32;;;;;;;8.37;5.50;;;30.60;1.00;;;;;;5065879;28;20493;-83
2022/06/04 11:52:24;;;;;;;9.97;5.37;;;29.50;1.00;;;;;;5065376;28;20459;-83
2022/06/04 11:55:24;;;;;;;10.03;5.70;;;29.40;1.00;;;;;;5064790;28;20443;-83
2022/06/04 11:58:10;;;;;;;12.30;7.00;;;29.50;1.00;;;;;;5067572;28;20423;-85
2022/06/04 12:00:41;;;;;;;8.90;5.00;;;28.20;1.00;;;;;;5066979;28;20455;-83
2022/06/04 12:03:18;;;;;;;7.27;4.87;;;29.00;1.00;;;;;;5070667;28;20476;-83
2022/06/04 12:05:54;;;;;;;8.10;5.13;;;29.10;1.00;;;;;;5065823;28;20805;-83
2022/06/04 12:08:23;;;;;;;8.33;5.63;;;29.50;1.00;;;;;;5069291;28;20480;-83
2022/06/04 12:11:18;;;;;;;8.53;6.00;;;31.10;1.00;;;;;;5068306;28;20451;-83
2022/06/04 12:13:54;;;;;;;10.23;6.00;;;32.60;1.00;;;;;;5048861;28;20429;-83
2022/06/04 12:16:29;;;;;;;7.20;5.30;;;32.10;1.00;;;;;;5075923;28;20451;-83
2022/06/04 12:18:59;;;;;;;9.73;6.13;;;32.70;1.00;;;;;;5075346;28;20459;-83
2022/06/04 12:24:34;;;;;;;8.27;5.27;;;32.90;1.00;;;;;;5073375;28;20424;-83
2022/06/04 12:27:08;;;;;;;10.73;5.07;;;32.40;1.00;;;;;;5071339;28;20803;-84
2022/06/04 12:29:44;;;;;;;9.10;5.73;;;30.50;1.00;;;;;;5061036;28;20465;-83
2022/06/04 12:32:23;;;;;;;7.90;5.70;;;31.40;1.00;;;;;;5063715;28;20422;-84
2022/06/04 12:34:52;;;;;;;9.77;6.50;;;31.00;1.00;;;;;;5058635;28;20492;-84
2022/06/04 12:37:25;;;;;;;8.63;6.40;;;30.90;1.00;;;;;;5047398;28;20455;-83
2022/06/04 12:39:52;;;;;;;9.10;5.90;;;30.30;1.00;;;;;;5044011;28;20828;-83
2022/06/04 12:42:23;;;;;;;11.03;6.10;;;30.30;1.00;;;;;;5064177;28;20421;-83
2022/06/04 12:44:58;;;;;;;8.20;5.57;;;31.20;1.00;;;;;;5057200;28;20462;-82
2022/06/04 12:47:28;;;;;;;11.13;6.10;;;31.80;1.00;;;;;;5064390;28;20438;-82
2022/06/04 12:50:00;;;;;;;8.57;5.73;;;29.50;1.00;;;;;;5063288;28;20450;-82
2022/06/04 12:52:35;;;;;;;11.13;5.50;;;29.60;1.00;;;;;;5067887;28;21082;-83
2022/06/04 12:55:08;;;;;;;10.77;6.00;;;30.70;1.00;;;;;;5071895;28;20421;-82
2022/06/04 12:57:46;;;;;;;8.50;6.00;;;31.80;1.00;;;;;;5068510;28;20477;-82
2022/06/04 13:00:28;;;;;;;10.13;5.10;;;32.30;1.00;;;;;;5069345;28;20439;-82
2022/06/04 13:03:16;;;;;;;7.90;5.27;;;32.30;1.00;;;;;;5061119;28;20421;-85
2022/06/04 13:06:02;;;;;;;10.27;4.90;;;32.80;1.00;;;;;;5061814;28;20432;-84
2022/06/04 13:08:37;;;;;;;8.10;5.33;;;31.70;1.00;;;;;;5065737;28;20919;-84
2022/06/04 13:11:15;;;;;;;8.30;6.10;;;31.70;1.00;;;;;;5070373;28;20452;-84
2022/06/04 13:13:48;;;;;;;8.33;6.00;;;31.70;1.00;;;;;;5048594;28;20480;-84
2022/06/04 13:16:18;;;;;;;10.03;4.80;;;32.80;1.00;;;;;;5047508;28;20462;-84
2022/06/04 13:18:56;;;;;;;7.60;5.20;;;33.30;1.00;;;;;;5063581;28;20464;-84
2022/06/04 13:21:23;;;;;;;8.50;4.60;;;33.00;1.00;;;;;;5062601;28;20444;-84
2022/06/04 13:23:56;;;;;;;8.07;4.10;;;32.80;1.00;;;;;;5061086;28;20437;-84
2022/06/04 13:26:31;;;;;;;8.57;6.20;;;32.40;1.00;;;;;;5054181;28;20440;-83
2022/06/04 13:28:59;;;;;;;8.07;5.13;;;32.40;1.00;;;;;;5045778;28;20809;-84
2022/06/04 13:31:29;;;;;;;9.60;5.23;;;32.00;1.00;;;;;;5064270;28;20591;-85
2022/06/04 13:33:58;;;;;;;6.47;4.17;;;32.10;1.00;;;;;;5065491;28;20567;-85
2022/06/04 13:36:27;;;;;;;6.60;3.90;;;32.00;1.00;;;;;;5067275;28;20428;-85